Time;durP1;ratioP1;P1;durP2;ratioP2;P2;SDS_P1;SDS_P2;PMS_P1;PMS_P2;Temp;Humidity;BMP_temperature;BMP_pressure;BME280_temperature;BME280_humidity;BME280_pressure;Samples;Min_cycle;Max_cycle;Signal;HPM_P1;HPM_P2
2023/09/18 00:00:00;;;;;;;0.75;0.68;;;14.90;99.90;;;;;;5120528;27;20520;-72
2023/09/18 00:02:26;;;;;;;0.68;0.50;;;14.90;99.90;;;;;;5120206;27;20040;-72
2023/09/18 00:04:55;;;;;;;0.05;0.05;;;14.80;99.90;;;;;;5123860;27;20118;-72
2023/09/18 00:07:20;;;;;;;0.40;0.40;;;14.80;99.90;;;;;;5124490;27;20031;-72
2023/09/18 00:09:46;;;;;;;0.35;0.35;;;14.90;99.90;;;;;;5117271;27;20057;-72
2023/09/18 00:12:11;;;;;;;0.08;0.08;;;14.80;99.90;;;;;;5104427;27;20042;-72
2023/09/18 00:14:37;;;;;;;0.28;0.28;;;14.80;99.90;;;;;;5111023;27;20396;-72
2023/09/18 00:17:03;;;;;;;0.05;0.05;;;14.80;99.90;;;;;;5118973;27;20040;-73
2023/09/18 00:19:29;;;;;;;0.30;0.22;;;14.80;99.90;;;;;;5123203;27;20031;-72
2023/09/18 00:21:56;;;;;;;1.65;1.52;;;14.70;99.90;;;;;;5122968;27;20571;-72
2023/09/18 00:24:22;;;;;;;0.93;0.65;;;14.60;99.90;;;;;;5120844;27;20366;-72
2023/09/18 00:26:47;;;;;;;0.25;0.25;;;14.60;99.90;;;;;;5120212;27;20046;-72
2023/09/18 00:29:13;;;;;;;0.30;0.30;;;14.60;99.90;;;;;;5127033;27;20042;-72
2023/09/18 00:31:39;;;;;;;0.65;0.45;;;14.70;99.90;;;;;;5116416;27;20047;-72
2023/09/18 00:34:04;;;;;;;1.05;1.00;;;14.70;99.90;;;;;;5122605;27;20078;-72
2023/09/18 00:36:30;;;;;;;0.38;0.30;;;14.80;99.90;;;;;;5117800;27;20485;-72
2023/09/18 00:38:55;;;;;;;1.23;1.13;;;14.80;99.90;;;;;;5120226;27;20055;-72
2023/09/18 00:41:21;;;;;;;0.88;0.60;;;14.80;99.90;;;;;;5126125;27;20050;-72
2023/09/18 00:43:47;;;;;;;0.57;0.57;;;14.90;99.90;;;;;;5120339;27;20055;-72
2023/09/18 00:46:12;;;;;;;1.05;1.02;;;15.00;99.90;;;;;;5119738;27;20374;-72
2023/09/18 00:48:38;;;;;;;1.45;1.30;;;15.10;99.90;;;;;;5121895;27;20071;-72
2023/09/18 00:51:05;;;;;;;0.88;0.68;;;15.20;99.90;;;;;;5122869;27;20066;-73
2023/09/18 00:53:31;;;;;;;1.02;0.95;;;15.20;99.90;;;;;;5121216;27;20043;-73
2023/09/18 00:55:59;;;;;;;0.80;0.80;;;15.30;99.90;;;;;;5108998;27;20460;-73
2023/09/18 00:58:26;;;;;;;1.00;0.70;;;15.50;99.90;;;;;;5118151;27;20050;-73
2023/09/18 01:00:51;;;;;;;1.77;0.68;;;15.30;99.90;;;;;;5113835;27;20040;-74
2023/09/18 01:03:18;;;;;;;2.78;1.30;;;15.30;99.90;;;;;;5120378;27;20039;-73
2023/09/18 01:05:45;;;;;;;1.90;1.30;;;15.40;99.90;;;;;;5121365;28;20082;-72
2023/09/18 01:08:11;;;;;;;1.00;0.77;;;15.40;99.90;;;;;;5121198;28;20042;-73
2023/09/18 01:10:52;;;;;;;2.78;0.43;;;15.40;99.90;;;;;;5125067;28;20063;-72
2023/09/18 01:13:28;;;;;;;4.35;1.65;;;15.40;99.90;;;;;;5115395;28;20039;-73
2023/09/18 01:16:06;;;;;;;1.40;1.30;;;15.70;99.90;;;;;;5123328;27;20073;-73
2023/09/18 01:18:32;;;;;;;3.42;1.38;;;15.60;99.90;;;;;;5120257;28;20036;-73
2023/09/18 01:20:57;;;;;;;0.90;0.88;;;15.50;99.90;;;;;;5120344;27;20042;-73
2023/09/18 01:23:23;;;;;;;0.75;0.55;;;15.50;99.90;;;;;;5119209;28;20035;-73
2023/09/18 01:25:49;;;;;;;0.90;0.47;;;15.50;99.90;;;;;;5120187;28;20032;-73
2023/09/18 01:28:16;;;;;;;2.92;2.60;;;15.50;99.90;;;;;;5121499;27;20045;-72
2023/09/18 01:30:42;;;;;;;1.50;1.40;;;15.50;99.90;;;;;;5125167;27;20400;-73
2023/09/18 01:33:09;;;;;;;2.53;0.90;;;15.50;99.90;;;;;;5124664;27;20039;-72
2023/09/18 01:35:36;;;;;;;3.40;2.15;;;15.30;99.90;;;;;;5125197;27;20437;-73
2023/09/18 01:38:03;;;;;;;1.17;1.08;;;15.20;99.90;;;;;;5126316;27;20069;-73
2023/09/18 01:40:29;;;;;;;2.30;1.75;;;15.20;99.90;;;;;;5121546;27;20078;-73
2023/09/18 01:42:55;;;;;;;2.63;1.67;;;15.50;99.90;;;;;;5114562;27;20110;-73
2023/09/18 01:45:21;;;;;;;6.97;1.88;;;16.30;99.90;;;;;;5122640;27;20458;-72
2023/09/18 01:47:46;;;;;;;6.38;3.47;;;16.00;99.90;;;;;;5133109;27;20038;-72
2023/09/18 01:50:13;;;;;;;2.28;1.25;;;16.10;99.90;;;;;;5115890;27;20038;-72
2023/09/18 01:52:38;;;;;;;2.63;1.33;;;16.10;99.90;;;;;;5121263;27;20051;-72
2023/09/18 01:55:05;;;;;;;5.40;2.20;;;16.20;99.90;;;;;;5124563;27;20497;-73
2023/09/18 01:57:30;;;;;;;1.00;0.90;;;16.00;99.90;;;;;;5125331;27;20084;-73
2023/09/18 01:59:56;;;;;;;12.25;2.53;;;16.00;99.90;;;;;;5126652;27;20448;-73
2023/09/18 02:02:21;;;;;;;1.92;1.25;;;16.00;99.90;;;;;;5126027;27;20682;-73
2023/09/18 02:04:47;;;;;;;1.63;1.27;;;15.90;99.90;;;;;;5126400;27;20032;-72
2023/09/18 02:07:13;;;;;;;5.88;1.42;;;15.80;99.90;;;;;;5123677;27;20035;-73
2023/09/18 02:09:39;;;;;;;1.85;1.67;;;15.80;99.90;;;;;;5124819;27;20481;-72
2023/09/18 02:12:05;;;;;;;3.10;2.03;;;15.70;99.90;;;;;;5125870;27;20038;-73
2023/09/18 02:14:31;;;;;;;4.57;1.98;;;15.70;99.90;;;;;;5128063;27;20031;-72
2023/09/18 02:16:57;;;;;;;3.45;2.00;;;15.70;99.90;;;;;;5124774;27;20365;-72
2023/09/18 02:19:22;;;;;;;2.30;1.90;;;15.70;99.90;;;;;;5103821;27;20043;-73
2023/09/18 02:21:48;;;;;;;1.02;0.95;;;15.70;99.90;;;;;;5124322;27;20039;-73
2023/09/18 02:24:14;;;;;;;2.67;1.75;;;15.80;99.90;;;;;;5126809;27;20505;-73
2023/09/18 02:26:39;;;;;;;2.90;2.25;;;15.70;99.90;;;;;;5125212;27;20092;-73
2023/09/18 02:29:11;;;;;;;3.42;2.03;;;15.70;99.90;;;;;;5124826;27;20073;-72
2023/09/18 02:31:36;;;;;;;1.17;1.08;;;15.90;99.90;;;;;;5127529;27;20031;-73
2023/09/18 02:34:02;;;;;;;2.17;1.52;;;16.10;99.90;;;;;;5127279;27;20545;-72
2023/09/18 02:36:28;;;;;;;12.68;3.10;;;16.10;99.90;;;;;;5124648;27;20078;-72
2023/09/18 02:38:53;;;;;;;4.57;3.42;;;16.10;99.90;;;;;;5121331;27;20035;-72
2023/09/18 02:41:19;;;;;;;3.70;2.17;;;16.20;99.90;;;;;;5123669;27;20035;-72
2023/09/18 02:43:44;;;;;;;3.95;2.38;;;16.10;99.90;;;;;;5126101;27;20039;-72
2023/09/18 02:46:10;;;;;;;2.88;2.05;;;16.10;99.90;;;;;;5127160;27;20043;-73
2023/09/18 02:48:36;;;;;;;3.25;2.53;;;16.10;99.90;;;;;;5124441;27;20039;-73
2023/09/18 02:51:02;;;;;;;2.15;1.10;;;16.20;99.90;;;;;;5120370;27;20043;-72
2023/09/18 02:53:28;;;;;;;1.80;1.27;;;16.00;99.90;;;;;;5126258;27;20130;-72
2023/09/18 02:55:55;;;;;;;1.90;1.42;;;16.00;99.90;;;;;;5123912;27;20043;-72
2023/09/18 02:58:22;;;;;;;1.38;1.23;;;15.90;99.90;;;;;;5120958;27;20040;-72
2023/09/18 03:00:49;;;;;;;1.38;1.23;;;15.90;99.90;;;;;;5125065;27;20413;-73
2023/09/18 03:03:16;;;;;;;3.42;1.75;;;15.90;99.90;;;;;;5126338;27;20404;-72
2023/09/18 03:05:43;;;;;;;0.93;0.82;;;16.00;99.90;;;;;;5125291;27;20110;-73
2023/09/18 03:08:09;;;;;;;0.93;0.77;;;15.80;99.90;;;;;;5122922;27;20036;-72
2023/09/18 03:10:35;;;;;;;1.17;1.08;;;15.80;99.90;;;;;;5118322;27;20040;-72
2023/09/18 03:13:02;;;;;;;1.70;1.50;;;15.80;99.90;;;;;;5119503;27;20042;-73
2023/09/18 03:15:28;;;;;;;1.35;1.02;;;15.80;99.90;;;;;;5122670;27;20032;-72
2023/09/18 03:17:53;;;;;;;2.70;1.42;;;15.90;99.90;;;;;;5123760;27;20528;-73
2023/09/18 03:20:23;;;;;;;1.83;1.65;;;15.90;99.90;;;;;;5122932;27;20036;-72
2023/09/18 03:22:50;;;;;;;2.38;2.08;;;15.90;99.90;;;;;;5123714;27;20040;-72
2023/09/18 03:25:15;;;;;;;1.27;1.00;;;15.90;99.90;;;;;;5126167;27;20059;-72
2023/09/18 03:27:41;;;;;;;9.05;2.15;;;15.90;99.90;;;;;;5125631;27;20035;-72
2023/09/18 03:30:07;;;;;;;2.30;1.20;;;15.90;99.90;;;;;;5124495;27;20373;-73
2023/09/18 03:32:33;;;;;;;2.53;2.05;;;15.90;99.90;;;;;;5122465;27;20028;-73
2023/09/18 03:34:59;;;;;;;2.15;1.63;;;15.90;99.90;;;;;;5123406;27;20135;-73
2023/09/18 03:37:24;;;;;;;2.30;1.60;;;15.90;99.90;;;;;;5129258;27;20036;-73
2023/09/18 03:39:50;;;;;;;2.55;1.70;;;15.90;99.90;;;;;;5121101;27;20449;-72
2023/09/18 03:42:15;;;;;;;1.88;1.42;;;15.80;99.90;;;;;;5123066;27;20044;-72
2023/09/18 03:44:41;;;;;;;2.25;1.27;;;15.80;99.90;;;;;;5110130;27;20035;-72
2023/09/18 03:47:06;;;;;;;1.48;1.35;;;15.90;99.90;;;;;;5099188;27;20051;-73
2023/09/18 03:49:32;;;;;;;1.35;1.05;;;16.00;99.90;;;;;;5100578;27;20125;-73
2023/09/18 03:51:57;;;;;;;1.77;1.27;;;16.00;99.90;;;;;;5098684;27;20463;-73
2023/09/18 03:54:23;;;;;;;1.50;0.80;;;16.00;99.90;;;;;;5098916;27;20047;-73
2023/09/18 03:56:49;;;;;;;1.42;1.17;;;16.00;99.90;;;;;;5101164;27;20575;-73
2023/09/18 03:59:14;;;;;;;1.83;1.50;;;16.00;99.90;;;;;;5099418;27;20039;-72
2023/09/18 04:01:40;;;;;;;3.40;2.10;;;16.00;99.90;;;;;;5098265;27;20043;-72
2023/09/18 04:04:06;;;;;;;2.83;1.70;;;15.80;99.90;;;;;;5098891;27;20913;-72
2023/09/18 04:06:41;;;;;;;1.60;1.45;;;15.80;99.90;;;;;;5098830;27;20473;-72
2023/09/18 04:09:07;;;;;;;1.10;1.00;;;15.70;99.90;;;;;;5094875;27;20051;-72
2023/09/18 04:11:33;;;;;;;1.65;1.30;;;15.80;99.90;;;;;;5101434;27;20038;-72
2023/09/18 04:14:00;;;;;;;2.38;1.77;;;16.00;99.90;;;;;;5099629;27;20533;-72
2023/09/18 04:16:27;;;;;;;1.05;0.32;;;15.80;99.90;;;;;;5079808;27;20032;-72
2023/09/18 04:18:53;;;;;;;2.15;1.33;;;15.80;99.90;;;;;;5097552;27;20051;-72
2023/09/18 04:21:21;;;;;;;1.10;1.00;;;15.80;99.90;;;;;;5102193;27;20043;-72
2023/09/18 04:23:47;;;;;;;2.53;1.88;;;15.80;99.90;;;;;;5102187;27;20039;-72
2023/09/18 04:26:15;;;;;;;1.30;0.75;;;15.80;99.90;;;;;;5099434;27;20045;-72
2023/09/18 04:28:41;;;;;;;1.08;0.85;;;15.90;99.90;;;;;;5099080;27;20134;-72
2023/09/18 04:31:07;;;;;;;1.40;1.20;;;16.00;99.90;;;;;;5099873;27;20105;-72
2023/09/18 04:33:33;;;;;;;2.22;1.35;;;16.00;99.90;;;;;;5102579;27;20079;-72
2023/09/18 04:35:58;;;;;;;1.55;1.45;;;15.90;99.90;;;;;;5102771;27;20046;-72
2023/09/18 04:38:24;;;;;;;1.42;1.33;;;15.90;99.90;;;;;;5100748;27;20043;-71
2023/09/18 04:40:58;;;;;;;1.77;0.95;;;16.00;99.90;;;;;;5099062;27;20050;-72
2023/09/18 04:43:24;;;;;;;2.95;1.50;;;15.90;99.90;;;;;;5100901;27;20059;-72
2023/09/18 04:45:50;;;;;;;3.22;2.15;;;15.90;99.90;;;;;;5123951;27;20404;-72
2023/09/18 04:48:16;;;;;;;1.33;0.85;;;15.90;99.90;;;;;;5121294;27;20047;-72
2023/09/18 04:50:42;;;;;;;4.15;2.65;;;16.00;99.90;;;;;;5121496;27;20031;-72
2023/09/18 04:53:08;;;;;;;2.20;1.98;;;16.10;99.90;;;;;;5119673;27;20509;-72
2023/09/18 04:55:34;;;;;;;1.05;0.95;;;16.30;99.90;;;;;;5121892;27;20073;-72
2023/09/18 04:58:00;;;;;;;37.95;1.52;;;16.40;99.90;;;;;;5124572;27;20395;-72
2023/09/18 05:00:26;;;;;;;2.08;0.98;;;16.30;99.90;;;;;;5124670;27;20370;-72
2023/09/18 05:02:52;;;;;;;1.83;1.25;;;16.30;99.90;;;;;;5121921;27;20075;-72
2023/09/18 05:05:18;;;;;;;0.55;0.47;;;16.40;99.90;;;;;;5120505;27;20039;-73
2023/09/18 05:07:44;;;;;;;1.02;0.93;;;16.40;99.90;;;;;;5122069;27;20036;-72
2023/09/18 05:10:10;;;;;;;5.05;2.17;;;16.40;99.90;;;;;;5126681;27;20043;-72
2023/09/18 05:12:37;;;;;;;1.65;1.33;;;16.40;99.90;;;;;;5121437;28;20119;-72
2023/09/18 05:15:04;;;;;;;1.73;1.38;;;16.40;99.90;;;;;;5124495;28;20040;-73
2023/09/18 05:17:51;;;;;;;3.13;1.67;;;16.50;99.90;;;;;;5095655;28;20058;-72
2023/09/18 05:20:17;;;;;;;0.45;0.45;;;16.70;99.90;;;;;;5113872;28;20395;-72
2023/09/18 05:22:44;;;;;;;0.85;0.63;;;16.50;99.90;;;;;;5119268;28;20067;-72
2023/09/18 05:25:11;;;;;;;1.58;1.42;;;16.50;99.90;;;;;;5119830;28;20048;-72
2023/09/18 05:27:44;;;;;;;1.10;0.95;;;16.50;99.90;;;;;;5120373;28;20036;-72
2023/09/18 05:30:21;;;;;;;1.40;0.88;;;16.50;99.90;;;;;;5121548;28;20047;-72
2023/09/18 05:32:48;;;;;;;0.60;0.60;;;16.60;99.90;;;;;;5123970;27;20444;-72
2023/09/18 05:35:14;;;;;;;4.10;2.55;;;16.60;99.90;;;;;;5121222;27;20063;-72
2023/09/18 05:37:41;;;;;;;1.42;0.80;;;16.60;99.90;;;;;;5123893;27;20034;-72
2023/09/18 05:40:11;;;;;;;0.40;0.40;;;16.60;99.90;;;;;;5121215;27;20091;-72
2023/09/18 05:42:43;;;;;;;2.30;1.42;;;16.70;99.90;;;;;;5112970;28;20586;-72
2023/09/18 05:45:10;;;;;;;2.50;1.60;;;16.80;99.90;;;;;;5120885;28;20043;-72
2023/09/18 05:47:35;;;;;;;22.48;2.45;;;16.80;99.90;;;;;;5123232;28;20046;-72
2023/09/18 05:50:06;;;;;;;1.60;1.30;;;16.90;99.90;;;;;;5124211;27;20047;-72
2023/09/18 05:52:32;;;;;;;6.03;3.03;;;16.90;99.90;;;;;;5121980;27;20055;-72
2023/09/18 05:54:58;;;;;;;1.75;1.63;;;17.30;99.90;;;;;;5121050;28;20400;-72
2023/09/18 05:57:23;;;;;;;1.55;1.00;;;17.10;99.90;;;;;;5117752;27;20043;-72
2023/09/18 05:59:49;;;;;;;0.88;0.85;;;17.10;99.90;;;;;;5123994;28;20118;-72
2023/09/18 06:02:16;;;;;;;0.57;0.38;;;17.20;99.90;;;;;;5123810;28;20039;-72
2023/09/18 06:04:42;;;;;;;2.03;1.33;;;17.20;99.90;;;;;;5121704;27;20420;-73
2023/09/18 06:07:07;;;;;;;2.72;1.25;;;17.40;99.90;;;;;;5119828;28;20040;-72
2023/09/18 06:09:33;;;;;;;0.57;0.52;;;17.40;99.90;;;;;;5120604;28;20031;-72
2023/09/18 06:12:00;;;;;;;2.65;1.67;;;17.40;99.90;;;;;;5112140;28;20036;-72
2023/09/18 06:14:25;;;;;;;0.75;0.47;;;17.50;99.90;;;;;;5110530;27;20035;-72
2023/09/18 06:16:51;;;;;;;0.10;0.10;;;17.60;99.90;;;;;;5120951;27;20072;-72
2023/09/18 06:19:17;;;;;;;1.27;0.98;;;17.60;99.90;;;;;;5124375;27;20036;-72
2023/09/18 06:21:43;;;;;;;4.95;1.20;;;17.60;99.90;;;;;;5124531;27;20044;-72
2023/09/18 06:24:09;;;;;;;4.38;2.67;;;17.60;99.90;;;;;;5123876;27;20042;-73
2023/09/18 06:26:35;;;;;;;1.00;0.90;;;17.50;99.90;;;;;;5123718;27;20032;-72
2023/09/18 06:29:02;;;;;;;1.65;1.35;;;17.60;99.90;;;;;;5122954;27;20111;-73
2023/09/18 06:31:28;;;;;;;1.73;1.20;;;17.60;99.90;;;;;;5127192;27;20039;-72
2023/09/18 06:33:53;;;;;;;1.25;1.10;;;17.70;99.90;;;;;;5119990;27;20413;-72
2023/09/18 06:36:19;;;;;;;0.30;0.30;;;17.70;99.90;;;;;;5124424;27;20052;-73
2023/09/18 06:38:45;;;;;;;1.10;0.95;;;17.80;99.90;;;;;;5126553;27;20445;-73
2023/09/18 06:41:10;;;;;;;0.60;0.60;;;17.90;99.90;;;;;;5091242;27;20048;-73
2023/09/18 06:43:36;;;;;;;2.85;1.15;;;17.90;99.90;;;;;;5091693;27;20107;-73
2023/09/18 06:46:01;;;;;;;0.95;0.73;;;17.80;99.90;;;;;;5103238;27;20147;-73
2023/09/18 06:48:32;;;;;;;0.10;0.10;;;17.70;99.90;;;;;;5097921;27;20066;-75
2023/09/18 06:50:58;;;;;;;0.10;0.10;;;17.70;99.90;;;;;;5103268;27;21305;-74
2023/09/18 06:53:23;;;;;;;1.10;1.00;;;17.70;99.90;;;;;;5102710;27;20057;-74
2023/09/18 06:55:49;;;;;;;2.38;0.80;;;17.70;99.90;;;;;;5120425;27;20477;-74
2023/09/18 06:58:15;;;;;;;0.88;0.70;;;18.10;99.90;;;;;;5119685;27;20043;-74
2023/09/18 07:00:40;;;;;;;0.43;0.40;;;17.70;99.90;;;;;;5102237;27;20336;-74
2023/09/18 07:03:06;;;;;;;8.98;1.85;;;17.70;99.90;;;;;;5100826;27;20078;-73
2023/09/18 07:05:31;;;;;;;0.30;0.30;;;17.70;99.90;;;;;;5100506;27;20115;-73
2023/09/18 07:07:57;;;;;;;0.95;0.47;;;17.70;99.90;;;;;;5097286;27;20398;-75
2023/09/18 07:10:23;;;;;;;1.85;0.73;;;17.70;99.90;;;;;;5098272;27;20400;-74
2023/09/18 07:12:49;;;;;;;1.67;1.23;;;17.80;99.90;;;;;;5098440;27;20146;-74
2023/09/18 07:15:15;;;;;;;1.38;0.90;;;17.90;99.90;;;;;;5096170;27;20466;-77
2023/09/18 07:17:40;;;;;;;0.80;0.40;;;17.80;99.90;;;;;;5083910;27;20036;-76
2023/09/18 07:20:13;;;;;;;1.15;0.98;;;17.70;99.90;;;;;;5085245;27;20844;-75
2023/09/18 07:22:40;;;;;;;2.03;0.88;;;17.70;99.90;;;;;;5109032;27;20053;-75
2023/09/18 07:25:06;;;;;;;0.85;0.75;;;17.70;99.90;;;;;;5110771;27;20031;-76
2023/09/18 07:27:32;;;;;;;1.02;0.85;;;17.70;99.90;;;;;;5122947;27;20423;-76
2023/09/18 07:29:58;;;;;;;1.48;0.82;;;17.80;99.90;;;;;;5098975;27;20142;-76
2023/09/18 07:32:26;;;;;;;2.25;1.17;;;17.90;99.90;;;;;;5113220;27;20118;-76
2023/09/18 07:34:52;;;;;;;1.95;1.08;;;17.80;99.90;;;;;;5116242;27;20051;-75
2023/09/18 07:37:20;;;;;;;2.38;1.48;;;17.80;99.90;;;;;;5114535;27;20044;-75
2023/09/18 07:39:46;;;;;;;1.95;0.82;;;17.80;99.90;;;;;;5084395;27;20044;-75
2023/09/18 07:42:12;;;;;;;1.50;1.10;;;17.80;99.90;;;;;;5081688;27;20043;-75
2023/09/18 07:44:37;;;;;;;0.28;0.28;;;17.80;99.90;;;;;;5082791;27;20036;-74
2023/09/18 07:47:03;;;;;;;0.60;0.40;;;17.90;99.90;;;;;;5090206;27;20040;-75
2023/09/18 07:49:29;;;;;;;0.57;0.40;;;17.80;99.90;;;;;;5094630;27;20160;-75
2023/09/18 07:51:55;;;;;;;0.30;0.30;;;18.30;99.90;;;;;;5093193;27;20055;-75
2023/09/18 07:54:21;;;;;;;3.63;1.10;;;17.90;99.90;;;;;;5081999;27;20576;-74
2023/09/18 07:56:46;;;;;;;0.35;0.20;;;17.90;99.90;;;;;;5114177;27;20054;-74
2023/09/18 07:59:14;;;;;;;0.88;0.73;;;17.90;99.90;;;;;;5116309;27;20035;-74
2023/09/18 08:01:40;;;;;;;0.75;0.68;;;17.90;99.90;;;;;;5119539;27;20051;-74
2023/09/18 08:04:06;;;;;;;0.82;0.57;;;18.00;99.90;;;;;;5117944;27;20040;-73
2023/09/18 08:06:32;;;;;;;0.47;0.43;;;18.20;99.90;;;;;;5115135;27;20084;-73
2023/09/18 08:08:58;;;;;;;0.52;0.47;;;18.10;99.90;;;;;;5098286;27;20136;-73
2023/09/18 08:11:23;;;;;;;0.10;0.10;;;18.10;99.90;;;;;;5093141;27;20147;-73
2023/09/18 08:13:49;;;;;;;1.02;0.57;;;18.10;99.90;;;;;;5088852;27;20043;-74
2023/09/18 08:16:14;;;;;;;0.90;0.65;;;18.20;99.90;;;;;;5106519;27;20096;-73
2023/09/18 08:18:41;;;;;;;2.10;1.00;;;18.10;99.90;;;;;;5113252;27;20043;-74
2023/09/18 08:21:08;;;;;;;0.82;0.73;;;18.20;99.90;;;;;;5094643;27;20046;-74
2023/09/18 08:23:38;;;;;;;0.38;0.25;;;18.20;99.90;;;;;;5093287;27;20053;-74
2023/09/18 08:26:03;;;;;;;0.20;0.20;;;18.10;99.90;;;;;;5095174;27;20047;-74
2023/09/18 08:28:29;;;;;;;0.80;0.75;;;18.20;99.90;;;;;;5093291;27;20038;-74
2023/09/18 08:30:55;;;;;;;0.10;0.05;;;18.20;99.90;;;;;;5098980;27;20130;-74
2023/09/18 08:33:21;;;;;;;0.40;0.40;;;18.20;99.90;;;;;;5115736;27;20139;-74
2023/09/18 08:35:46;;;;;;;1.05;0.52;;;18.20;99.90;;;;;;5121469;27;20039;-74
2023/09/18 08:38:14;;;;;;;0.43;0.43;;;18.20;99.90;;;;;;5119148;27;20035;-73
2023/09/18 08:40:42;;;;;;;1.08;0.55;;;18.20;99.90;;;;;;5117913;27;20097;-73
2023/09/18 08:43:10;;;;;;;5.30;1.30;;;18.10;99.90;;;;;;5115752;27;20400;-73
2023/09/18 08:45:47;;;;;;;0.17;0.17;;;18.20;99.90;;;;;;5108136;27;20101;-73
2023/09/18 08:48:13;;;;;;;0.60;0.40;;;18.30;99.90;;;;;;5100565;27;20578;-73
2023/09/18 08:50:40;;;;;;;1.08;0.80;;;18.40;99.90;;;;;;5118966;27;20039;-73
2023/09/18 08:53:06;;;;;;;3.67;1.15;;;18.40;99.90;;;;;;5121115;27;20051;-73
2023/09/18 08:55:33;;;;;;;3.13;0.70;;;18.60;99.90;;;;;;5118109;27;20099;-73
2023/09/18 08:57:59;;;;;;;2.45;1.10;;;18.80;99.90;;;;;;5095331;27;20047;-73
2023/09/18 09:00:26;;;;;;;3.67;1.30;;;18.90;99.90;;;;;;5100159;27;20039;-73
2023/09/18 09:02:54;;;;;;;2.83;0.90;;;18.90;99.90;;;;;;5093686;27;20031;-73
2023/09/18 09:05:20;;;;;;;2.83;0.93;;;18.90;99.90;;;;;;5108337;27;20047;-73
2023/09/18 09:07:46;;;;;;;0.20;0.20;;;18.80;99.90;;;;;;5115675;27;20538;-73
2023/09/18 09:10:11;;;;;;;1.08;0.73;;;18.80;99.90;;;;;;5102811;27;20288;-73
2023/09/18 09:12:51;;;;;;;0.55;0.55;;;18.70;99.90;;;;;;5118945;28;20047;-73
2023/09/18 09:15:17;;;;;;;0.47;0.45;;;18.70;99.90;;;;;;5101714;28;20039;-74
2023/09/18 09:17:44;;;;;;;0.50;0.50;;;18.60;99.90;;;;;;5105022;28;20036;-73
2023/09/18 09:20:14;;;;;;;3.63;1.67;;;18.60;99.90;;;;;;5124691;28;20040;-73
2023/09/18 09:22:41;;;;;;;1.10;0.93;;;18.60;99.90;;;;;;5110699;27;20484;-73
2023/09/18 09:25:28;;;;;;;0.70;0.63;;;18.60;99.90;;;;;;5116696;28;20128;-73
2023/09/18 09:27:55;;;;;;;0.63;0.55;;;18.60;99.90;;;;;;5119312;28;20050;-73
2023/09/18 09:30:28;;;;;;;1.95;1.10;;;18.70;99.90;;;;;;5119549;27;20142;-73
2023/09/18 09:32:56;;;;;;;2.17;1.40;;;18.70;99.90;;;;;;5113518;28;20485;-73
2023/09/18 09:35:33;;;;;;;1.90;1.48;;;18.80;99.90;;;;;;5118056;27;20447;-73
2023/09/18 09:38:19;;;;;;;0.52;0.43;;;18.90;99.90;;;;;;5109169;28;20074;-73
2023/09/18 09:40:45;;;;;;;0.70;0.70;;;19.00;99.90;;;;;;5110841;28;20040;-73
2023/09/18 09:43:14;;;;;;;1.92;1.27;;;19.20;99.90;;;;;;5122762;28;20043;-73
2023/09/18 09:45:41;;;;;;;2.17;1.55;;;19.20;99.90;;;;;;5117240;28;20043;-72
2023/09/18 09:48:07;;;;;;;2.25;1.73;;;19.30;99.90;;;;;;5117276;28;20055;-73
2023/09/18 09:50:45;;;;;;;1.60;1.00;;;19.30;99.90;;;;;;5099304;27;20658;-73
2023/09/18 09:53:11;;;;;;;0.77;0.77;;;19.40;99.90;;;;;;5100225;27;20047;-73
2023/09/18 09:55:38;;;;;;;1.33;1.20;;;19.40;99.90;;;;;;5105707;27;20049;-73
2023/09/18 09:58:05;;;;;;;2.80;1.98;;;19.40;99.90;;;;;;5120494;27;20071;-72
2023/09/18 10:00:43;;;;;;;0.60;0.55;;;19.60;99.90;;;;;;5120185;27;20043;-73
2023/09/18 10:03:11;;;;;;;3.10;2.28;;;19.70;99.90;;;;;;5123651;27;20065;-73
2023/09/18 10:05:38;;;;;;;2.17;1.15;;;19.80;99.90;;;;;;5123464;27;20039;-73
2023/09/18 10:08:08;;;;;;;0.82;0.82;;;19.90;99.90;;;;;;5119571;27;20031;-73
2023/09/18 10:10:42;;;;;;;4.45;2.47;;;20.10;99.90;;;;;;5114765;27;20497;-72
2023/09/18 10:13:21;;;;;;;3.05;1.80;;;20.40;99.90;;;;;;5089083;27;20091;-73
2023/09/18 10:15:49;;;;;;;8.95;2.15;;;20.50;99.90;;;;;;5100948;27;20051;-73
2023/09/18 10:18:28;;;;;;;0.55;0.55;;;20.40;99.90;;;;;;5123064;27;20047;-73
2023/09/18 10:21:23;;;;;;;1.65;1.55;;;20.50;99.90;;;;;;5122202;27;20071;-73
2023/09/18 10:24:18;;;;;;;6.13;1.50;;;20.40;99.90;;;;;;5120637;27;20043;-73
2023/09/18 10:26:51;;;;;;;0.80;0.77;;;20.60;99.90;;;;;;5118130;27;20489;-72
2023/09/18 10:29:19;;;;;;;1.75;1.25;;;20.70;71.50;;;;;;5118709;27;20043;-72
2023/09/18 10:31:46;;;;;;;2.70;1.40;;;21.00;69.10;;;;;;5123536;27;20119;-72
2023/09/18 10:34:15;;;;;;;1.40;1.30;;;21.00;99.90;;;;;;5095716;27;20122;-72
2023/09/18 10:36:42;;;;;;;1.70;1.55;;;21.10;99.90;;;;;;5095533;27;20047;-72
2023/09/18 10:39:12;;;;;;;1.00;0.90;;;21.20;1.00;;;;;;5101061;27;20044;-72
2023/09/18 10:41:40;;;;;;;2.38;0.57;;;21.40;99.90;;;;;;5122752;27;20035;-72
2023/09/18 10:44:07;;;;;;;0.50;0.50;;;21.50;99.90;;;;;;5122676;27;20128;-72
2023/09/18 10:46:33;;;;;;;0.55;0.43;;;21.70;99.90;;;;;;5118534;27;20508;-72
2023/09/18 10:49:00;;;;;;;4.57;1.20;;;21.60;99.90;;;;;;5110432;27;20083;-72
2023/09/18 10:51:26;;;;;;;1.23;0.80;;;21.80;1.00;;;;;;5096959;27;20514;-72
2023/09/18 10:53:52;;;;;;;2.80;1.63;;;22.40;1.00;;;;;;5099618;27;20517;-72
2023/09/18 10:56:20;;;;;;;2.13;1.35;;;22.60;43.70;;;;;;5094859;27;20348;-72
2023/09/18 10:58:45;;;;;;;1.60;1.02;;;22.90;99.90;;;;;;5098964;27;20110;-72
2023/09/18 11:01:14;;;;;;;3.10;1.02;;;23.00;99.90;;;;;;5097880;27;20069;-72
2023/09/18 11:03:41;;;;;;;0.28;0.28;;;22.90;1.00;;;;;;5097175;27;20043;-72
2023/09/18 11:06:10;;;;;;;1.35;0.88;;;22.90;99.90;;;;;;5095526;27;20060;-72
2023/09/18 11:08:47;;;;;;;1.02;0.65;;;23.00;99.90;;;;;;5117579;27;20115;-72
2023/09/18 11:11:19;;;;;;;0.75;0.63;;;22.90;1.00;;;;;;5122396;27;20035;-72
2023/09/18 11:13:47;;;;;;;0.98;0.82;;;22.90;99.90;;;;;;5121860;27;20039;-72
2023/09/18 11:16:21;;;;;;;0.10;0.10;;;22.80;99.90;;;;;;5115840;27;20035;-73
2023/09/18 11:18:52;;;;;;;0.65;0.50;;;22.80;99.90;;;;;;5124032;27;20059;-72
2023/09/18 11:21:23;;;;;;;0.25;0.25;;;22.80;99.90;;;;;;5119425;27;20074;-72
2023/09/18 11:24:00;;;;;;;0.13;0.13;;;22.50;93.70;;;;;;5118525;27;20058;-73
2023/09/18 11:26:30;;;;;;;0.98;0.85;;;22.30;99.90;;;;;;5114876;27;20437;-72
2023/09/18 11:28:58;;;;;;;0.25;0.25;;;22.20;99.90;;;;;;5119114;27;20047;-73
2023/09/18 11:31:50;;;;;;;0.22;0.22;;;21.90;99.90;;;;;;5123599;27;20066;-73
2023/09/18 11:34:23;;;;;;;0.60;0.60;;;21.20;99.90;;;;;;5121552;27;20047;-72
2023/09/18 11:36:50;;;;;;;0.10;0.10;;;20.80;1.00;;;;;;5120556;27;20138;-72
2023/09/18 11:39:38;;;;;;;0.80;0.63;;;21.00;99.90;;;;;;5123785;27;20438;-73
2023/09/18 11:42:08;;;;;;;0.90;0.70;;;21.40;1.00;;;;;;5124914;27;20043;-73
2023/09/18 11:44:36;;;;;;;2.90;1.17;;;21.80;99.90;;;;;;5113495;27;20035;-73
2023/09/18 11:47:04;;;;;;;0.55;0.47;;;22.10;99.90;;;;;;5122020;27;20070;-73
2023/09/18 11:49:32;;;;;;;0.47;0.47;;;22.10;99.90;;;;;;5116688;27;20142;-73
2023/09/18 11:52:01;;;;;;;1.50;0.50;;;21.90;1.00;;;;;;5125513;27;20059;-74
2023/09/18 11:54:29;;;;;;;0.85;0.43;;;21.80;84.00;;;;;;5122496;27;20043;-72
2023/09/18 11:56:54;;;;;;;0.38;0.38;;;21.70;53.50;;;;;;5123577;27;20483;-72
2023/09/18 11:59:35;;;;;;;0.50;0.28;;;21.70;99.90;;;;;;5122074;27;20043;-72
2023/09/18 12:02:05;;;;;;;0.00;0.00;;;21.30;1.00;;;;;;5112897;27;20051;-72
2023/09/18 12:04:32;;;;;;;0.22;0.22;;;20.90;1.00;;;;;;5120205;27;20063;-73
2023/09/18 12:07:03;;;;;;;0.63;0.55;;;21.00;1.00;;;;;;5122908;27;20043;-72
2023/09/18 12:09:32;;;;;;;1.83;1.00;;;21.40;30.00;;;;;;5123427;27;20047;-73
2023/09/18 12:12:05;;;;;;;0.57;0.47;;;21.60;99.90;;;;;;5118113;27;20126;-72
2023/09/18 12:14:34;;;;;;;5.72;1.35;;;22.40;99.90;;;;;;5117245;27;20401;-73
2023/09/18 12:17:01;;;;;;;0.20;0.20;;;23.20;1.00;;;;;;5120844;27;20100;-73
2023/09/18 12:19:27;;;;;;;0.77;0.52;;;23.70;99.90;;;;;;5122893;27;20043;-72
2023/09/18 12:21:52;;;;;;;0.20;0.20;;;24.10;99.90;;;;;;5122074;27;20047;-72
2023/09/18 12:24:25;;;;;;;0.65;0.52;;;24.40;54.00;;;;;;5119580;27;20047;-72
2023/09/18 12:26:51;;;;;;;0.13;0.13;;;24.60;1.00;;;;;;5119239;27;20043;-72
2023/09/18 12:29:18;;;;;;;1.08;0.50;;;24.40;1.00;;;;;;5110648;27;20043;-72
2023/09/18 12:31:47;;;;;;;0.57;0.32;;;24.10;99.90;;;;;;5112534;27;20530;-72
2023/09/18 12:34:21;;;;;;;0.47;0.47;;;24.40;99.90;;;;;;5119002;27;20048;-72
2023/09/18 12:36:47;;;;;;;0.38;0.38;;;24.20;99.90;;;;;;5122466;27;20035;-73
2023/09/18 12:39:16;;;;;;;0.50;0.38;;;24.30;99.90;;;;;;5120952;27;20542;-72
2023/09/18 12:41:46;;;;;;;1.70;0.88;;;24.20;99.90;;;;;;5119072;27;20040;-73
2023/09/18 12:44:14;;;;;;;0.60;0.57;;;24.50;99.90;;;;;;5119133;27;20044;-72
2023/09/18 12:46:41;;;;;;;0.32;0.32;;;24.20;99.90;;;;;;5122679;27;20130;-72
2023/09/18 12:49:27;;;;;;;0.55;0.32;;;24.00;99.90;;;;;;5125321;27;20099;-72